Time;durP1;ratioP1;P1;durP2;ratioP2;P2;SDS_P1;SDS_P2;PMS_P1;PMS_P2;Temp;Humidity;BMP_temperature;BMP_pressure;BME280_temperature;BME280_humidity;BME280_pressure;Samples;Min_cycle;Max_cycle;Signal;HPM_P1;HPM_P2
2023/07/09 00:01:04;;;;;;;5.03;3.70;;;26.80;52.30;;;;;;6061904;23;20092;-81
2023/07/09 00:03:29;;;;;;;6.65;4.07;;;26.80;52.70;;;;;;6059793;23;20228;-80
2023/07/09 00:05:55;;;;;;;5.45;4.20;;;26.70;52.50;;;;;;6060521;23;20010;-80
2023/07/09 00:08:33;;;;;;;6.65;4.07;;;26.60;53.30;;;;;;6061776;23;20392;-80
2023/07/09 00:10:59;;;;;;;6.07;4.32;;;26.70;53.10;;;;;;6078911;23;20623;-80
2023/07/09 00:13:25;;;;;;;9.65;4.80;;;26.60;52.60;;;;;;6065178;23;20037;-80
2023/07/09 00:15:51;;;;;;;11.75;4.70;;;26.40;52.90;;;;;;6058123;23;20437;-81
2023/07/09 00:18:16;;;;;;;6.93;4.38;;;26.30;53.10;;;;;;6055371;23;20021;-80
2023/07/09 00:20:43;;;;;;;6.10;4.30;;;26.10;53.50;;;;;;6055937;23;20014;-80
2023/07/09 00:23:13;;;;;;;5.45;4.38;;;25.90;54.50;;;;;;6083938;23;20101;-80
2023/07/09 00:25:43;;;;;;;7.30;4.15;;;25.90;53.80;;;;;;6029616;23;20010;-80
2023/07/09 00:28:17;;;;;;;6.63;3.88;;;25.90;54.70;;;;;;6032635;23;20330;-80
2023/07/09 00:30:43;;;;;;;8.38;4.55;;;26.10;54.50;;;;;;6030769;23;20089;-81
2023/07/09 00:33:15;;;;;;;6.50;4.53;;;26.10;54.20;;;;;;6056751;23;20515;-81
2023/07/09 00:35:45;;;;;;;13.30;4.95;;;25.90;53.80;;;;;;6059658;23;20041;-81
2023/07/09 00:38:15;;;;;;;8.40;4.85;;;25.80;53.50;;;;;;6061111;23;20006;-81
2023/07/09 00:41:02;;;;;;;7.05;4.60;;;25.80;53.80;;;;;;6059026;23;20010;-81
2023/07/09 00:43:35;;;;;;;7.93;4.30;;;25.60;53.70;;;;;;6063196;23;20028;-80
2023/07/09 00:46:30;;;;;;;8.38;4.93;;;25.50;54.20;;;;;;6039557;23;20013;-81
2023/07/09 00:48:58;;;;;;;7.30;4.70;;;25.40;54.20;;;;;;6090764;23;20017;-81
2023/07/09 00:51:24;;;;;;;8.15;4.68;;;25.40;54.30;;;;;;6058178;23;20089;-81
2023/07/09 00:53:51;;;;;;;8.30;4.20;;;25.30;54.20;;;;;;6060396;23;20648;-81
2023/07/09 00:56:25;;;;;;;8.38;3.90;;;25.20;54.20;;;;;;6084092;23;20013;-80
2023/07/09 00:58:50;;;;;;;8.32;4.47;;;25.20;54.60;;;;;;6037684;23;20010;-81
2023/07/09 01:01:18;;;;;;;7.60;5.10;;;25.00;55.80;;;;;;6057867;23;20394;-81
2023/07/09 01:03:58;;;;;;;8.68;4.70;;;25.00;54.90;;;;;;6035949;23;20520;-81
2023/07/09 01:06:32;;;;;;;6.75;4.45;;;25.00;55.50;;;;;;6058679;23;20014;-81
2023/07/09 01:08:58;;;;;;;8.68;4.90;;;24.90;55.60;;;;;;6061755;23;20085;-81
2023/07/09 01:11:24;;;;;;;8.23;4.85;;;24.70;55.80;;;;;;6040151;23;20033;-81
2023/07/09 01:13:51;;;;;;;7.57;4.60;;;24.80;55.90;;;;;;6081337;23;20097;-81
2023/07/09 01:16:18;;;;;;;5.30;3.92;;;25.00;55.30;;;;;;6060263;23;20013;-81
2023/07/09 01:18:43;;;;;;;8.32;4.57;;;25.10;55.70;;;;;;6062400;23;20322;-81
2023/07/09 01:21:15;;;;;;;5.97;4.85;;;25.40;55.70;;;;;;6083855;23;20017;-80
2023/07/09 01:23:43;;;;;;;8.60;3.95;;;25.40;55.90;;;;;;6059532;23;20386;-80
2023/07/09 01:26:12;;;;;;;5.85;3.90;;;25.50;55.50;;;;;;6036256;23;20018;-81
2023/07/09 01:28:41;;;;;;;6.97;4.88;;;25.60;55.70;;;;;;6056491;23;20437;-81
2023/07/09 01:31:07;;;;;;;6.45;4.65;;;25.30;55.40;;;;;;6085566;23;20467;-81
2023/07/09 01:33:33;;;;;;;6.20;4.30;;;24.90;56.10;;;;;;6061786;23;20014;-80
2023/07/09 01:36:00;;;;;;;8.20;4.45;;;24.90;56.20;;;;;;6057191;23;20006;-80
2023/07/09 01:38:30;;;;;;;8.50;4.53;;;25.00;56.20;;;;;;6061195;23;20018;-80
2023/07/09 01:40:59;;;;;;;6.70;4.20;;;25.00;56.40;;;;;;6062475;23;20398;-80
2023/07/09 01:43:25;;;;;;;9.43;4.78;;;25.00;56.10;;;;;;6081580;23;20022;-81
2023/07/09 01:45:51;;;;;;;10.60;4.60;;;24.60;56.50;;;;;;6058064;23;20006;-80
2023/07/09 01:48:17;;;;;;;10.00;5.03;;;24.30;56.40;;;;;;6060952;23;20030;-81
2023/07/09 01:50:43;;;;;;;9.27;5.07;;;24.20;57.40;;;;;;6057958;23;20831;-80
2023/07/09 01:53:12;;;;;;;6.32;4.05;;;24.10;58.20;;;;;;6058722;23;20009;-80
2023/07/09 01:55:37;;;;;;;6.47;4.25;;;24.20;56.80;;;;;;6062364;23;20682;-80
2023/07/09 01:58:06;;;;;;;6.13;3.95;;;24.50;57.00;;;;;;6081858;23;20006;-80
2023/07/09 02:00:34;;;;;;;5.97;4.30;;;24.80;57.40;;;;;;6060432;23;20014;-80
2023/07/09 02:03:01;;;;;;;10.15;4.97;;;24.90;57.70;;;;;;6059119;23;20475;-80
2023/07/09 02:05:29;;;;;;;8.57;4.30;;;24.60;59.60;;;;;;6058991;23;20010;-80
2023/07/09 02:07:54;;;;;;;5.82;4.20;;;24.40;58.10;;;;;;6035331;23;20460;-81
2023/07/09 02:10:20;;;;;;;9.05;4.18;;;24.80;57.30;;;;;;6082937;23;20010;-80
2023/07/09 02:12:46;;;;;;;7.63;4.63;;;24.80;57.40;;;;;;6083344;23;20014;-81
2023/07/09 02:15:11;;;;;;;13.80;4.68;;;24.60;58.00;;;;;;6058242;23;20356;-80
2023/07/09 02:17:37;;;;;;;7.10;4.57;;;24.50;57.70;;;;;;6061456;23;20069;-81
2023/07/09 02:20:05;;;;;;;5.70;4.25;;;24.50;58.30;;;;;;6081729;23;20096;-80
2023/07/09 02:22:30;;;;;;;5.93;4.45;;;24.40;57.40;;;;;;6059352;23;20010;-81
2023/07/09 02:24:56;;;;;;;4.97;4.13;;;24.30;57.00;;;;;;6085263;23;20508;-80
2023/07/09 02:27:22;;;;;;;9.27;4.80;;;24.20;57.10;;;;;;6059490;23;20045;-80
2023/07/09 02:29:47;;;;;;;9.43;5.30;;;24.10;57.80;;;;;;6084898;23;20006;-80
2023/07/09 02:32:20;;;;;;;8.77;4.43;;;24.10;57.50;;;;;;6061653;23;20464;-80
2023/07/09 02:34:48;;;;;;;6.18;4.47;;;24.10;58.00;;;;;;6059436;23;20363;-80
2023/07/09 02:37:17;;;;;;;6.90;3.92;;;24.10;58.40;;;;;;6060606;23;20424;-80
2023/07/09 02:39:43;;;;;;;4.72;4.03;;;24.10;58.30;;;;;;6062876;23;20325;-81
2023/07/09 02:42:10;;;;;;;6.13;4.28;;;24.10;58.30;;;;;;6057820;23;20009;-80
2023/07/09 02:44:36;;;;;;;7.88;4.18;;;24.00;58.50;;;;;;6058547;23;20329;-80
2023/07/09 02:47:02;;;;;;;6.85;4.32;;;23.90;58.10;;;;;;6032197;23;20350;-81
2023/07/09 02:49:28;;;;;;;5.53;4.35;;;23.80;58.20;;;;;;6057107;23;20044;-80
2023/07/09 02:51:53;;;;;;;5.15;4.20;;;23.80;58.50;;;;;;6083661;23;20581;-81
2023/07/09 02:54:19;;;;;;;6.43;4.40;;;23.80;58.50;;;;;;6038259;23;20002;-80
2023/07/09 02:56:44;;;;;;;8.05;4.10;;;24.00;59.50;;;;;;6058977;23;20025;-80
2023/07/09 02:59:11;;;;;;;6.45;3.78;;;24.10;59.20;;;;;;6060710;23;20071;-79
2023/07/09 03:01:36;;;;;;;5.70;4.70;;;24.10;59.40;;;;;;6084050;23;20010;-78
2023/07/09 03:04:03;;;;;;;8.80;4.95;;;23.80;58.90;;;;;;6054463;23;20021;-79
2023/07/09 03:06:29;;;;;;;9.15;4.57;;;23.70;59.50;;;;;;6085258;23;20064;-78
2023/07/09 03:08:54;;;;;;;7.95;4.57;;;23.60;58.60;;;;;;6034668;23;20010;-79
2023/07/09 03:11:20;;;;;;;7.63;5.03;;;23.60;59.60;;;;;;6061984;23;20388;-79
2023/07/09 03:13:46;;;;;;;6.75;5.22;;;23.40;59.10;;;;;;6059244;23;20018;-78
2023/07/09 03:16:12;;;;;;;6.57;4.40;;;23.10;58.60;;;;;;6085314;23;20011;-78
2023/07/09 03:18:37;;;;;;;10.38;5.60;;;23.10;58.90;;;;;;6060036;23;20014;-78
2023/07/09 03:21:03;;;;;;;7.57;4.07;;;23.10;58.50;;;;;;6082706;23;20002;-79
2023/07/09 03:23:28;;;;;;;8.15;5.00;;;23.10;58.70;;;;;;6060647;23;20017;-78
2023/07/09 03:25:54;;;;;;;8.05;4.40;;;23.00;59.20;;;;;;6060685;23;20014;-78
2023/07/09 03:28:20;;;;;;;4.75;4.10;;;22.90;59.10;;;;;;6083504;23;20093;-78
2023/07/09 03:30:46;;;;;;;7.13;4.57;;;22.90;59.00;;;;;;6112237;23;20026;-79
2023/07/09 03:33:12;;;;;;;5.78;4.63;;;23.00;60.50;;;;;;6062145;23;20010;-78
2023/07/09 03:35:38;;;;;;;7.82;5.13;;;23.10;59.80;;;;;;6061182;23;20096;-78
2023/07/09 03:38:05;;;;;;;7.15;5.28;;;23.00;60.60;;;;;;6063165;23;20405;-78
2023/07/09 03:40:30;;;;;;;6.60;5.15;;;22.90;59.40;;;;;;6036253;23;20497;-78
2023/07/09 03:42:56;;;;;;;8.15;5.50;;;22.90;59.20;;;;;;6056576;23;20010;-78
2023/07/09 03:45:21;;;;;;;8.85;5.45;;;22.80;63.10;;;;;;6062802;23;20014;-78
2023/07/09 03:47:47;;;;;;;8.90;6.28;;;22.80;59.70;;;;;;6062515;23;20480;-78
2023/07/09 03:50:12;;;;;;;10.25;4.93;;;22.70;63.20;;;;;;6061009;23;20348;-78
2023/07/09 03:52:38;;;;;;;6.38;4.47;;;22.70;60.90;;;;;;6084546;23;20085;-78
2023/07/09 03:55:04;;;;;;;11.32;5.88;;;22.70;59.90;;;;;;6085711;23;20052;-78
2023/07/09 03:57:30;;;;;;;9.00;5.35;;;22.70;60.00;;;;;;6086238;23;20113;-79
2023/07/09 03:59:56;;;;;;;11.02;5.05;;;22.70;59.60;;;;;;6053321;23;20440;-79
2023/07/09 04:02:21;;;;;;;7.18;5.10;;;22.70;59.90;;;;;;6061969;23;20012;-79
2023/07/09 04:04:47;;;;;;;6.57;5.25;;;22.60;59.40;;;;;;6062020;23;20022;-79
2023/07/09 04:07:13;;;;;;;9.73;5.65;;;22.50;60.20;;;;;;6056052;23;20014;-78
2023/07/09 04:09:38;;;;;;;12.27;5.78;;;22.50;59.40;;;;;;6062141;23;20013;-78
2023/07/09 04:12:04;;;;;;;10.48;5.57;;;22.40;59.30;;;;;;6108240;23;20010;-79
2023/07/09 04:14:30;;;;;;;10.20;4.90;;;22.40;59.60;;;;;;6059391;23;20026;-79
2023/07/09 04:16:56;;;;;;;7.63;5.05;;;22.50;59.70;;;;;;6062621;23;20017;-78
2023/07/09 04:19:22;;;;;;;5.95;4.78;;;22.60;59.40;;;;;;6083124;23;20006;-78
2023/07/09 04:21:47;;;;;;;9.25;5.32;;;22.60;59.30;;;;;;6061884;23;20010;-78
2023/07/09 04:24:16;;;;;;;10.43;5.82;;;22.60;59.30;;;;;;6082807;23;20085;-78
2023/07/09 04:26:42;;;;;;;6.97;5.05;;;22.60;58.90;;;;;;6036840;23;20538;-79
2023/07/09 04:29:07;;;;;;;9.02;5.25;;;22.50;60.40;;;;;;6062025;23;20013;-79
2023/07/09 04:31:33;;;;;;;11.38;5.45;;;22.60;60.30;;;;;;6056530;23;20037;-78
2023/07/09 04:33:59;;;;;;;10.65;5.93;;;22.70;61.70;;;;;;6084906;23;20064;-79
2023/07/09 04:36:25;;;;;;;8.35;5.50;;;22.70;60.80;;;;;;6062141;23;20010;-79
2023/07/09 04:38:51;;;;;;;11.52;5.55;;;22.80;60.50;;;;;;6061381;23;20453;-79
2023/07/09 04:41:17;;;;;;;6.15;5.07;;;22.90;60.90;;;;;;6061383;23;20006;-78
2023/07/09 04:43:42;;;;;;;6.55;4.95;;;23.00;59.90;;;;;;6084567;23;20544;-79
2023/07/09 04:46:08;;;;;;;9.15;5.38;;;23.10;59.30;;;;;;6081799;23;20057;-79
2023/07/09 04:48:33;;;;;;;9.13;5.15;;;23.20;58.90;;;;;;6086672;23;20010;-78
2023/07/09 04:50:59;;;;;;;8.15;5.72;;;23.20;58.70;;;;;;6083863;23;20017;-78
2023/07/09 04:53:25;;;;;;;6.28;4.82;;;23.40;58.70;;;;;;6059906;23;20538;-78
2023/07/09 04:55:51;;;;;;;9.75;4.80;;;23.50;58.10;;;;;;6057800;23;20026;-79
2023/07/09 04:58:18;;;;;;;10.38;5.60;;;23.60;58.40;;;;;;6083930;23;20069;-78
2023/07/09 05:00:43;;;;;;;9.52;5.47;;;23.70;59.20;;;;;;6061824;23;20072;-79
2023/07/09 05:03:09;;;;;;;8.43;5.88;;;23.80;60.20;;;;;;6083085;23;20045;-78
2023/07/09 05:05:34;;;;;;;8.63;5.10;;;24.00;60.20;;;;;;6058539;23;20014;-79
2023/07/09 05:08:01;;;;;;;10.45;5.88;;;24.10;60.60;;;;;;6086564;23;20064;-79
2023/07/09 05:10:26;;;;;;;8.18;5.53;;;24.30;60.50;;;;;;6081887;23;20387;-79
2023/07/09 05:12:53;;;;;;;8.77;5.47;;;24.40;59.60;;;;;;6063476;23;20013;-78
2023/07/09 05:15:19;;;;;;;7.60;4.60;;;24.60;59.50;;;;;;6061378;23;20456;-78
2023/07/09 05:17:45;;;;;;;9.05;4.95;;;24.80;60.30;;;;;;6081691;23;20456;-78
2023/07/09 05:20:11;;;;;;;8.43;4.55;;;25.00;59.80;;;;;;6085859;23;20044;-78
2023/07/09 05:22:37;;;;;;;7.53;5.75;;;25.10;57.90;;;;;;6037967;23;20344;-78
2023/07/09 05:25:03;;;;;;;14.45;4.80;;;25.40;59.80;;;;;;6084651;23;20068;-79
2023/07/09 05:27:28;;;;;;;5.93;4.93;;;25.50;58.90;;;;;;6081312;23;20093;-78
2023/07/09 05:29:54;;;;;;;8.85;5.40;;;25.70;58.20;;;;;;6084841;23;20534;-78
2023/07/09 05:32:19;;;;;;;10.15;5.22;;;25.80;57.10;;;;;;6083654;23;20013;-78
2023/07/09 05:34:45;;;;;;;8.98;5.28;;;26.00;58.80;;;;;;6081724;23;20068;-78
2023/07/09 05:37:11;;;;;;;9.13;5.82;;;26.20;58.90;;;;;;6059347;23;20105;-78
2023/07/09 05:39:37;;;;;;;8.25;5.07;;;26.40;60.20;;;;;;6085405;23;20029;-78
2023/07/09 05:42:03;;;;;;;6.95;4.80;;;26.60;59.70;;;;;;6079333;23;20010;-79
2023/07/09 05:44:28;;;;;;;9.45;5.20;;;26.80;57.10;;;;;;6062550;23;20077;-78
2023/07/09 05:46:54;;;;;;;8.05;5.10;;;27.00;59.50;;;;;;6059616;23;20061;-79
2023/07/09 05:49:19;;;;;;;6.80;5.40;;;27.20;59.90;;;;;;6058735;23;20097;-80
2023/07/09 05:51:45;;;;;;;10.40;5.28;;;27.40;59.70;;;;;;6084916;23;20017;-79
2023/07/09 05:54:11;;;;;;;9.45;5.13;;;27.60;60.60;;;;;;6072196;23;20018;-78
2023/07/09 05:56:36;;;;;;;8.55;5.20;;;27.90;60.50;;;;;;6085493;23;20013;-78
2023/07/09 05:59:02;;;;;;;6.90;5.13;;;28.10;59.80;;;;;;6058869;23;20020;-78
2023/07/09 06:01:27;;;;;;;7.68;4.70;;;28.30;60.20;;;;;;6083092;23;20427;-78
2023/07/09 06:03:54;;;;;;;8.23;5.18;;;28.20;58.00;;;;;;6062331;23;20037;-77
2023/07/09 06:06:20;;;;;;;9.57;5.15;;;28.50;59.40;;;;;;6057994;23;20392;-77
2023/07/09 06:08:46;;;;;;;6.72;5.03;;;28.70;58.20;;;;;;6062066;23;20440;-78
2023/07/09 06:11:12;;;;;;;9.48;5.72;;;28.90;59.00;;;;;;6039363;23;20326;-77
2023/07/09 06:13:37;;;;;;;10.98;5.63;;;29.20;58.80;;;;;;6075401;23;20022;-78
2023/07/09 06:16:03;;;;;;;7.95;5.32;;;29.40;58.70;;;;;;6057416;23;20014;-78
2023/07/09 06:18:29;;;;;;;6.95;4.35;;;29.40;56.80;;;;;;6082269;23;20007;-77
2023/07/09 06:20:57;;;;;;;8.77;4.95;;;29.10;54.90;;;;;;6027928;23;20014;-78
2023/07/09 06:23:22;;;;;;;6.65;5.25;;;29.40;58.90;;;;;;6055231;23;20378;-78
2023/07/09 06:25:48;;;;;;;7.45;4.82;;;29.90;58.30;;;;;;6050918;23;20018;-77
2023/07/09 06:28:18;;;;;;;6.07;4.55;;;30.30;57.80;;;;;;6056905;23;20041;-77
2023/07/09 06:30:44;;;;;;;6.70;5.43;;;30.40;57.10;;;;;;6047280;23;20010;-77
2023/07/09 06:33:10;;;;;;;9.63;5.07;;;30.70;57.30;;;;;;6010759;23;20011;-77
2023/07/09 06:35:36;;;;;;;10.15;5.63;;;31.00;56.80;;;;;;6064587;23;20010;-78
2023/07/09 06:38:01;;;;;;;9.10;5.85;;;31.20;56.60;;;;;;6077722;23;20119;-77
2023/07/09 06:40:28;;;;;;;7.40;5.03;;;31.30;55.90;;;;;;6055559;23;20353;-77
2023/07/09 06:42:54;;;;;;;8.02;5.53;;;31.50;55.60;;;;;;6055128;23;20021;-77
2023/07/09 06:45:19;;;;;;;7.35;4.72;;;31.70;55.40;;;;;;6052769;23;20023;-77
2023/07/09 06:47:45;;;;;;;12.32;6.57;;;31.50;54.80;;;;;;6056088;23;20021;-78
2023/07/09 06:50:12;;;;;;;10.27;5.38;;;31.90;55.60;;;;;;6030005;23;20023;-78
2023/07/09 06:52:37;;;;;;;8.27;4.85;;;32.20;54.90;;;;;;6039116;23;20472;-78
2023/07/09 06:55:03;;;;;;;8.73;4.90;;;32.40;54.90;;;;;;6056783;23;20026;-78
2023/07/09 06:57:29;;;;;;;7.07;5.03;;;32.50;54.20;;;;;;6031580;23;20051;-78
2023/07/09 06:59:55;;;;;;;5.13;3.92;;;32.60;54.40;;;;;;6076431;23;20623;-79
2023/07/09 07:02:20;;;;;;;7.07;4.85;;;32.70;54.00;;;;;;6080200;23;20345;-78
2023/07/09 07:04:46;;;;;;;10.95;4.78;;;32.90;54.10;;;;;;6057606;23;20018;-78
2023/07/09 07:07:12;;;;;;;7.03;4.85;;;33.10;53.20;;;;;;6056607;23;20018;-78
2023/07/09 07:09:37;;;;;;;5.32;4.55;;;33.30;53.70;;;;;;6057264;23;20758;-77
2023/07/09 07:12:03;;;;;;;7.18;5.20;;;33.20;53.70;;;;;;6056761;23;20066;-77
2023/07/09 07:14:29;;;;;;;5.85;4.82;;;33.80;52.90;;;;;;6056622;23;20131;-79
2023/07/09 07:16:57;;;;;;;5.82;4.38;;;33.80;50.60;;;;;;6074226;23;20049;-80
2023/07/09 07:19:23;;;;;;;8.02;5.90;;;34.00;52.90;;;;;;6034350;23;20021;-80
2023/07/09 07:21:48;;;;;;;7.70;4.57;;;34.30;52.40;;;;;;6080631;23;20438;-80
2023/07/09 07:24:14;;;;;;;5.45;4.88;;;34.00;51.20;;;;;;6031126;23;20349;-80
2023/07/09 07:26:41;;;;;;;6.47;5.15;;;34.00;52.10;;;;;;6083233;23;20013;-80
2023/07/09 07:29:06;;;;;;;10.60;4.63;;;34.40;52.00;;;;;;6077723;23;20065;-80
2023/07/09 07:31:32;;;;;;;8.75;6.07;;;34.10;50.40;;;;;;6030987;23;20022;-80
2023/07/09 07:33:57;;;;;;;8.43;5.40;;;34.70;52.10;;;;;;6057301;23;20034;-78
2023/07/09 07:36:23;;;;;;;8.43;5.00;;;35.20;51.20;;;;;;6056767;23;20014;-80
2023/07/09 07:38:50;;;;;;;6.72;5.00;;;35.30;50.90;;;;;;6084261;23;20018;-80
2023/07/09 07:41:16;;;;;;;9.02;5.28;;;35.10;49.50;;;;;;6075839;23;20014;-81
2023/07/09 07:43:41;;;;;;;7.20;5.72;;;35.20;51.10;;;;;;6056006;23;20033;-80
2023/07/09 07:46:07;;;;;;;7.50;5.13;;;35.30;51.10;;;;;;6079960;23;20079;-80
2023/07/09 07:48:33;;;;;;;8.52;5.30;;;35.60;49.40;;;;;;6056372;23;20097;-79
2023/07/09 07:51:02;;;;;;;5.93;4.95;;;35.90;51.10;;;;;;6055284;23;20081;-80
2023/07/09 07:53:30;;;;;;;7.20;5.30;;;35.60;49.70;;;;;;6078771;23;20062;-81
2023/07/09 07:55:56;;;;;;;9.93;5.65;;;36.20;50.20;;;;;;6030121;23;20010;-80
2023/07/09 07:58:22;;;;;;;9.90;5.10;;;36.30;50.10;;;;;;6080331;23;20501;-81
2023/07/09 08:00:47;;;;;;;10.07;5.30;;;36.60;49.00;;;;;;6055145;23;20090;-81
2023/07/09 08:03:13;;;;;;;8.55;5.55;;;37.00;47.90;;;;;;6073571;23;20030;-82
2023/07/09 08:05:38;;;;;;;7.35;5.50;;;36.80;48.00;;;;;;6078843;23;20006;-80
2023/07/09 08:08:04;;;;;;;8.65;5.93;;;37.30;48.60;;;;;;6050132;23;20222;-81
2023/07/09 08:10:30;;;;;;;9.02;5.60;;;37.60;47.90;;;;;;6050452;23;20449;-82
2023/07/09 08:12:57;;;;;;;9.40;5.55;;;37.90;47.00;;;;;;6082221;23;20152;-80
2023/07/09 08:15:26;;;;;;;11.88;5.75;;;37.40;47.10;;;;;;6038996;23;20390;-81
2023/07/09 08:17:51;;;;;;;10.55;5.55;;;37.20;47.30;;;;;;6057241;23;20015;-81
2023/07/09 08:20:17;;;;;;;8.73;5.22;;;37.80;47.50;;;;;;6081237;23;20008;-80
2023/07/09 08:22:43;;;;;;;9.77;5.70;;;37.90;47.30;;;;;;6058562;23;20056;-81
2023/07/09 08:25:08;;;;;;;8.70;5.85;;;38.00;47.30;;;;;;6108722;23;20018;-82
2023/07/09 08:27:34;;;;;;;12.95;5.80;;;38.30;46.10;;;;;;6057767;23;20102;-82
2023/07/09 08:30:00;;;;;;;8.30;5.85;;;38.00;47.10;;;;;;6060404;23;20026;-82
2023/07/09 08:32:25;;;;;;;6.25;4.75;;;38.00;47.30;;;;;;6084630;23;20014;-82
2023/07/09 08:34:51;;;;;;;7.55;5.88;;;38.30;46.90;;;;;;6058227;23;20326;-82
2023/07/09 08:37:17;;;;;;;8.43;5.40;;;38.50;46.20;;;;;;6062490;23;20041;-82
2023/07/09 08:39:42;;;;;;;9.15;5.03;;;38.80;46.40;;;;;;6019259;23;20017;-82
2023/07/09 08:42:11;;;;;;;7.93;4.97;;;39.10;46.00;;;;;;6076318;23;20014;-81
2023/07/09 08:44:46;;;;;;;6.68;5.28;;;39.10;45.40;;;;;;6018059;23;20034;-81
2023/07/09 08:47:12;;;;;;;14.25;5.40;;;38.80;44.50;;;;;;6088543;23;20344;-81
2023/07/09 08:49:45;;;;;;;9.02;5.45;;;38.60;45.00;;;;;;6108026;23;20013;-81
2023/07/09 08:52:26;;;;;;;8.27;4.75;;;39.20;45.00;;;;;;6086290;23;20009;-81
2023/07/09 08:54:51;;;;;;;7.95;5.28;;;39.30;45.00;;;;;;6064549;23;20018;-80
2023/07/09 08:57:21;;;;;;;10.02;5.22;;;39.80;44.70;;;;;;6062474;23;20010;-80
2023/07/09 08:59:46;;;;;;;7.10;5.30;;;40.10;44.60;;;;;;6061649;23;20014;-80
2023/07/09 09:02:35;;;;;;;5.95;4.90;;;40.40;43.60;;;;;;6035938;23;20138;-81
2023/07/09 09:05:03;;;;;;;12.25;6.20;;;39.90;43.40;;;;;;6063901;23;20578;-80
2023/07/09 09:07:42;;;;;;;9.13;6.05;;;40.00;44.30;;;;;;6062148;23;20081;-80
2023/07/09 09:10:16;;;;;;;6.35;4.80;;;40.60;43.50;;;;;;6062335;23;20381;-81
2023/07/09 09:13:09;;;;;;;9.73;4.80;;;40.60;42.90;;;;;;6062177;23;20032;-81
2023/07/09 09:15:35;;;;;;;9.88;5.53;;;40.60;43.40;;;;;;6041766;23;20030;-81
2023/07/09 09:18:22;;;;;;;7.68;5.45;;;41.00;42.80;;;;;;6057660;23;20433;-78
2023/07/09 09:21:13;;;;;;;8.75;5.10;;;41.10;42.60;;;;;;6083097;23;20018;-78
2023/07/09 09:23:40;;;;;;;5.07;4.57;;;41.40;42.30;;;;;;6056908;23;20352;-79
2023/07/09 09:26:14;;;;;;;9.18;5.00;;;41.30;42.20;;;;;;6059001;23;20400;-79
2023/07/09 09:28:40;;;;;;;10.53;6.17;;;41.30;42.10;;;;;;6064049;23;20033;-79
2023/07/09 09:31:09;;;;;;;10.98;5.00;;;41.80;40.90;;;;;;6060482;23;20006;-79
2023/07/09 09:33:42;;;;;;;7.22;4.63;;;41.60;42.00;;;;;;6035414;23;20360;-79
2023/07/09 09:36:15;;;;;;;9.25;5.40;;;41.90;41.10;;;;;;6059429;23;20037;-79
2023/07/09 09:38:41;;;;;;;11.23;5.57;;;42.00;41.40;;;;;;6064143;23;20017;-79
2023/07/09 09:41:14;;;;;;;5.30;4.45;;;42.50;40.10;;;;;;6058077;23;20014;-79
2023/07/09 09:43:41;;;;;;;6.35;4.10;;;42.60;40.40;;;;;;6061836;23;20398;-80
2023/07/09 09:46:07;;;;;;;5.28;4.60;;;42.40;41.10;;;;;;6032235;23;20436;-80
2023/07/09 09:48:33;;;;;;;10.82;5.28;;;42.30;41.10;;;;;;6061020;23;20017;-80
2023/07/09 09:51:03;;;;;;;7.85;4.47;;;42.30;41.00;;;;;;6059586;23;20006;-80
2023/07/09 09:53:38;;;;;;;6.25;4.47;;;42.80;39.40;;;;;;5022752;27;20466;-78
2023/07/09 09:56:05;;;;;;;8.70;3.95;;;43.10;38.30;;;;;;4981184;28;20111;-79
2023/07/09 09:58:30;;;;;;;7.25;4.60;;;43.20;38.30;;;;;;4978489;28;20092;-79
2023/07/09 10:00:58;;;;;;;11.32;4.82;;;43.20;38.60;;;;;;5026333;28;20029;-81
2023/07/09 10:03:33;;;;;;;7.05;4.30;;;43.30;38.80;;;;;;5013463;28;20574;-80
2023/07/09 10:06:00;;;;;;;6.45;4.88;;;43.70;38.40;;;;;;4997982;28;20032;-79
2023/07/09 10:08:59;;;;;;;8.50;4.43;;;43.80;37.30;;;;;;5008480;28;20053;-80
2023/07/09 10:11:35;;;;;;;8.70;4.18;;;43.90;38.10;;;;;;5010433;28;20084;-81
2023/07/09 10:14:03;;;;;;;6.70;3.95;;;43.80;37.80;;;;;;4995019;28;20058;-82
2023/07/09 10:16:40;;;;;;;4.75;3.83;;;43.70;37.70;;;;;;4982759;28;20026;-83
2023/07/09 10:19:25;;;;;;;7.20;3.50;;;43.70;38.20;;;;;;4973314;28;20089;-81
2023/07/09 10:22:00;;;;;;;6.38;3.67;;;44.00;37.30;;;;;;4949802;28;20552;-80
2023/07/09 10:24:47;;;;;;;6.15;4.03;;;44.00;37.80;;;;;;4957172;28;20068;-80
2023/07/09 10:27:18;;;;;;;4.88;3.40;;;44.30;37.00;;;;;;5001374;28;20027;-80
2023/07/09 10:29:43;;;;;;;6.00;3.55;;;44.30;37.10;;;;;;4966143;28;20458;-80
2023/07/09 10:32:32;;;;;;;6.75;3.78;;;44.30;37.00;;;;;;4969632;28;20116;-80
2023/07/09 10:35:16;;;;;;;6.03;3.45;;;44.50;36.90;;;;;;4973342;28;20034;-80
2023/07/09 10:37:50;;;;;;;6.88;3.53;;;44.60;36.90;;;;;;4974320;28;20029;-79
2023/07/09 10:40:17;;;;;;;7.03;3.30;;;44.40;36.10;;;;;;4990961;28;20057;-80
2023/07/09 10:42:48;;;;;;;7.68;3.50;;;44.50;36.70;;;;;;4978961;28;20037;-80
2023/07/09 10:45:17;;;;;;;5.90;3.17;;;44.50;36.20;;;;;;4990245;28;20053;-80
2023/07/09 10:47:48;;;;;;;6.35;3.33;;;44.60;35.90;;;;;;4963919;28;20030;-80
2023/07/09 10:50:34;;;;;;;4.53;3.00;;;44.70;36.10;;;;;;4983336;28;20109;-80
2023/07/09 10:53:22;;;;;;;5.45;3.78;;;44.90;35.60;;;;;;4978206;28;20531;-80
2023/07/09 10:55:53;;;;;;;9.95;4.40;;;45.10;35.70;;;;;;4974892;28;20084;-79
2023/07/09 10:58:35;;;;;;;4.93;3.10;;;45.20;35.00;;;;;;4978249;28;20026;-79
2023/07/09 11:01:00;;;;;;;5.20;3.33;;;45.10;35.80;;;;;;4991603;28;20486;-80
2023/07/09 11:03:54;;;;;;;6.60;3.08;;;45.30;36.20;;;;;;4949454;28;20026;-80
2023/07/09 11:06:28;;;;;;;6.25;3.15;;;45.50;35.20;;;;;;4973429;28;20394;-79
2023/07/09 11:08:54;;;;;;;5.47;2.93;;;45.60;34.70;;;;;;4965916;28;20102;-79
2023/07/09 11:11:28;;;;;;;6.63;3.58;;;45.90;34.40;;;;;;4961981;28;20356;-80
2023/07/09 11:14:00;;;;;;;5.68;3.45;;;45.90;34.80;;;;;;4947705;28;20379;-79
2023/07/09 11:16:32;;;;;;;5.05;3.35;;;45.80;35.00;;;;;;4966111;28;20031;-80
2023/07/09 11:19:05;;;;;;;4.75;2.72;;;45.80;34.50;;;;;;4956776;28;20768;-79
2023/07/09 11:21:33;;;;;;;5.22;2.90;;;45.90;35.00;;;;;;4939468;28;20046;-80
2023/07/09 11:24:00;;;;;;;4.18;2.83;;;46.00;34.40;;;;;;4965090;28;20027;-80
2023/07/09 11:26:32;;;;;;;5.85;3.13;;;46.00;34.30;;;;;;4961929;28;20038;-80
2023/07/09 11:29:04;;;;;;;7.97;3.30;;;46.10;33.60;;;;;;4967287;28;20034;-80
2023/07/09 11:31:30;;;;;;;7.68;3.10;;;46.30;33.60;;;;;;4982042;28;20038;-81
2023/07/09 11:34:05;;;;;;;5.50;3.53;;;46.40;33.80;;;;;;4978618;28;20382;-79
2023/07/09 11:36:31;;;;;;;4.93;2.90;;;46.40;33.20;;;;;;4961483;28;20576;-79
2023/07/09 11:38:57;;;;;;;4.80;3.28;;;46.40;33.70;;;;;;4970778;28;20041;-79
2023/07/09 11:41:44;;;;;;;10.05;3.58;;;46.40;33.50;;;;;;4958863;28;20038;-79
2023/07/09 11:44:21;;;;;;;4.20;3.30;;;46.50;33.50;;;;;;4976973;28;20292;-80
2023/07/09 11:46:52;;;;;;;8.48;2.92;;;46.70;33.20;;;;;;4962791;28;20072;-80
2023/07/09 11:49:19;;;;;;;4.00;2.90;;;46.70;33.30;;;;;;4972621;28;20035;-80
2023/07/09 11:51:46;;;;;;;5.65;4.38;;;46.80;33.10;;;;;;4967201;28;20073;-80
2023/07/09 11:54:15;;;;;;;3.38;2.83;;;46.60;33.60;;;;;;4960481;28;20085;-80
2023/07/09 11:56:42;;;;;;;6.45;2.90;;;46.60;32.90;;;;;;4971714;28;20031;-80
2023/07/09 11:59:10;;;;;;;6.68;3.83;;;46.90;32.40;;;;;;4969164;28;20358;-80
2023/07/09 12:01:44;;;;;;;4.53;3.80;;;46.70;31.80;;;;;;4963295;28;20031;-80
2023/07/09 12:04:19;;;;;;;4.72;2.58;;;46.80;32.90;;;;;;4949585;28;20053;-80
2023/07/09 12:06:45;;;;;;;5.45;2.90;;;46.90;32.50;;;;;;4964702;28;20580;-80
2023/07/09 12:09:18;;;;;;;4.78;3.33;;;47.10;32.50;;;;;;4964655;28;20026;-81
2023/07/09 12:11:48;;;;;;;6.80;3.00;;;47.00;32.10;;;;;;4977593;28;20035;-80
2023/07/09 12:14:18;;;;;;;4.00;2.83;;;47.00;32.80;;;;;;4959423;28;20490;-80
2023/07/09 12:16:49;;;;;;;5.40;3.22;;;47.20;32.30;;;;;;4952038;28;20181;-80
2023/07/09 12:19:22;;;;;;;4.70;3.58;;;47.20;31.60;;;;;;4961418;28;20045;-80
2023/07/09 12:21:53;;;;;;;4.22;3.15;;;47.10;32.30;;;;;;4960874;28;20122;-79
2023/07/09 12:24:30;;;;;;;3.80;3.30;;;47.20;32.30;;;;;;4972665;28;20030;-80
2023/07/09 12:26:58;;;;;;;4.85;3.72;;;46.90;31.60;;;;;;4942303;28;20031;-80
2023/07/09 12:29:28;;;;;;;5.63;3.05;;;47.10;31.00;;;;;;4962091;28;20035;-80
2023/07/09 12:31:56;;;;;;;5.05;3.72;;;46.90;31.20;;;;;;4958463;28;20034;-80
2023/07/09 12:34:22;;;;;;;4.65;3.25;;;47.10;31.30;;;;;;4947817;28;20031;-80
2023/07/09 12:36:49;;;;;;;5.72;3.00;;;47.20;32.10;;;;;;4949459;28;20034;-80
2023/07/09 12:39:16;;;;;;;4.07;2.88;;;47.30;30.40;;;;;;4946095;28;20070;-80
2023/07/09 12:41:42;;;;;;;6.32;3.42;;;47.30;31.40;;;;;;4959519;28;20038;-80
2023/07/09 12:44:19;;;;;;;4.93;2.67;;;47.40;31.40;;;;;;4955365;28;20042;-79
2023/07/09 12:46:46;;;;;;;6.53;3.00;;;47.10;30.80;;;;;;4957773;28;20545;-81
2023/07/09 12:49:32;;;;;;;4.40;2.75;;;47.30;32.00;;;;;;4975655;28;20552;-80
2023/07/09 12:52:00;;;;;;;7.80;3.47;;;47.20;30.90;;;;;;4965242;28;20042;-80